Time;durP1;ratioP1;P1;durP2;ratioP2;P2;SDS_P1;SDS_P2;PMS_P1;PMS_P2;Temp;Humidity;BMP_temperature;BMP_pressure;BME280_temperature;BME280_humidity;BME280_pressure;Samples;Min_cycle;Max_cycle;Signal;HPM_P1;HPM_P2
2022/06/07 00:02:13;;;;;;;5.17;4.67;;;12.90;1.00;;;;;;5035141;28;20196;-63
2022/06/07 00:04:40;;;;;;;5.63;5.07;;;13.10;99.90;;;;;;5045290;28;20190;-63
2022/06/07 00:07:09;;;;;;;5.27;4.77;;;13.00;1.00;;;;;;5052041;28;20195;-64
2022/06/07 00:09:36;;;;;;;6.73;5.40;;;12.80;1.00;;;;;;5061106;28;20191;-63
2022/06/07 00:12:04;;;;;;;5.43;4.93;;;12.70;1.00;;;;;;5057596;28;20203;-64
2022/06/07 00:14:32;;;;;;;5.37;4.87;;;12.70;1.00;;;;;;5038442;28;20253;-63
2022/06/07 00:17:05;;;;;;;5.93;5.43;;;12.80;1.00;;;;;;5030620;28;20195;-65
2022/06/07 00:19:33;;;;;;;6.47;5.77;;;12.70;1.00;;;;;;5032887;28;20195;-64
2022/06/07 00:22:01;;;;;;;6.07;5.47;;;12.70;1.00;;;;;;5061541;28;20229;-63
2022/06/07 00:24:28;;;;;;;6.87;6.03;;;12.70;1.00;;;;;;5053323;28;20203;-65
2022/06/07 00:26:55;;;;;;;7.40;6.70;;;12.70;1.00;;;;;;5050095;28;20343;-64
2022/06/07 00:29:24;;;;;;;7.50;6.80;;;12.80;1.00;;;;;;5043883;28;20199;-64
2022/06/07 00:31:52;;;;;;;6.70;6.17;;;12.80;1.00;;;;;;5042281;28;20207;-64
2022/06/07 00:34:19;;;;;;;7.20;6.50;;;12.90;1.00;;;;;;5043132;28;20215;-63
2022/06/07 00:36:46;;;;;;;7.30;6.63;;;13.00;1.00;;;;;;5051180;28;20282;-65
2022/06/07 00:39:13;;;;;;;7.93;7.00;;;13.10;1.00;;;;;;5058259;28;20211;-63
2022/06/07 00:41:41;;;;;;;6.27;5.77;;;13.10;1.00;;;;;;5047472;28;20610;-64
2022/06/07 00:44:26;;;;;;;7.00;6.37;;;13.20;99.90;;;;;;5038910;28;20210;-64
2022/06/07 00:47:15;;;;;;;6.67;5.93;;;13.30;99.90;;;;;;5048365;28;20233;-64
2022/06/07 00:50:08;;;;;;;6.70;6.10;;;13.30;99.90;;;;;;5055482;28;20199;-64
2022/06/07 00:52:35;;;;;;;7.00;6.27;;;13.30;99.90;;;;;;5038462;28;21150;-63
2022/06/07 00:55:07;;;;;;;7.10;6.40;;;13.20;99.90;;;;;;5041518;28;20738;-63
2022/06/07 00:57:41;;;;;;;7.07;6.47;;;13.20;99.90;;;;;;5042469;28;20191;-64
2022/06/07 01:00:15;;;;;;;7.40;6.70;;;13.10;99.90;;;;;;5038529;28;20273;-64
2022/06/07 01:02:44;;;;;;;7.20;6.60;;;13.20;99.90;;;;;;5043826;28;20203;-63
2022/06/07 01:05:11;;;;;;;7.97;7.17;;;13.20;99.90;;;;;;5042867;28;20199;-63
2022/06/07 01:10:45;;;;;;;8.40;6.83;;;13.10;1.00;;;;;;5043741;28;20194;-63
2022/06/07 01:13:25;;;;;;;7.20;6.57;;;13.00;1.00;;;;;;5058485;28;20215;-62
2022/06/07 01:16:02;;;;;;;7.37;6.77;;;13.00;1.00;;;;;;5028243;28;20601;-62
2022/06/07 01:18:34;;;;;;;7.40;6.67;;;12.90;1.00;;;;;;5032555;28;20186;-63
2022/06/07 01:21:28;;;;;;;7.63;6.93;;;12.90;1.00;;;;;;5048828;28;20821;-63
2022/06/07 01:23:56;;;;;;;7.87;7.17;;;12.90;1.00;;;;;;5042122;28;20206;-63
2022/06/07 01:26:29;;;;;;;8.90;8.00;;;12.90;1.00;;;;;;5059650;28;20226;-64
2022/06/07 01:28:57;;;;;;;8.40;7.70;;;12.90;1.00;;;;;;5055622;28;20227;-63
2022/06/07 01:31:24;;;;;;;9.13;8.33;;;12.90;1.00;;;;;;5058397;28;20195;-65
2022/06/07 01:33:51;;;;;;;8.53;7.63;;;12.80;1.00;;;;;;5037679;28;20219;-64
2022/06/07 01:36:18;;;;;;;8.70;7.77;;;12.80;1.00;;;;;;5043432;28;20204;-63
2022/06/07 01:44:19;;;;;;;8.57;7.80;;;12.90;1.00;;;;;;5055017;28;20241;-63
2022/06/07 01:46:46;;;;;;;8.27;7.50;;;12.90;1.00;;;;;;5033424;28;20751;-63
2022/06/07 01:49:14;;;;;;;8.70;7.83;;;13.00;1.00;;;;;;5026719;28;20207;-63
2022/06/07 01:51:41;;;;;;;8.60;7.80;;;12.90;1.00;;;;;;5050920;28;20210;-64
2022/06/07 01:54:10;;;;;;;9.33;8.53;;;12.90;1.00;;;;;;5044986;28;20215;-63
2022/06/07 01:56:38;;;;;;;9.60;8.40;;;12.70;1.00;;;;;;5033087;28;20211;-64
2022/06/07 01:59:06;;;;;;;8.43;7.67;;;12.70;1.00;;;;;;5046149;28;20257;-63
2022/06/07 02:01:34;;;;;;;10.37;8.53;;;12.70;1.00;;;;;;5051083;28;20206;-63
2022/06/07 02:04:01;;;;;;;10.30;9.30;;;12.60;1.00;;;;;;5044276;28;20234;-63
2022/06/07 02:06:28;;;;;;;9.07;8.17;;;12.50;1.00;;;;;;5045952;28;20203;-64
2022/06/07 02:08:57;;;;;;;9.63;8.67;;;12.60;1.00;;;;;;5046016;28;20699;-64
2022/06/07 02:11:26;;;;;;;9.70;8.80;;;12.60;1.00;;;;;;5030231;28;20207;-63
2022/06/07 02:14:00;;;;;;;9.40;8.57;;;12.50;27.30;;;;;;5057315;28;20210;-64
2022/06/07 02:16:27;;;;;;;10.07;8.97;;;12.50;99.90;;;;;;5063432;28;20229;-63
2022/06/07 02:18:55;;;;;;;9.73;8.83;;;12.40;94.00;;;;;;5044807;28;20203;-64
2022/06/07 02:21:29;;;;;;;13.50;9.07;;;12.40;99.90;;;;;;5045410;28;20228;-63
2022/06/07 02:23:56;;;;;;;9.07;8.27;;;12.50;99.90;;;;;;5043030;28;20203;-64
2022/06/07 02:26:48;;;;;;;10.17;9.27;;;12.50;1.00;;;;;;5040892;28;20231;-64
2022/06/07 02:29:17;;;;;;;9.93;8.93;;;12.60;1.00;;;;;;5039415;28;20196;-65
2022/06/07 02:31:51;;;;;;;11.00;9.90;;;12.60;53.40;;;;;;5056425;28;20614;-64
2022/06/07 02:34:20;;;;;;;10.53;9.43;;;12.40;99.90;;;;;;5039606;28;20199;-63
2022/06/07 02:36:52;;;;;;;11.37;10.03;;;12.30;99.90;;;;;;5024814;28;20360;-64
2022/06/07 02:39:19;;;;;;;10.80;9.60;;;12.20;99.90;;;;;;5040147;28;20815;-63
2022/06/07 02:41:48;;;;;;;12.10;10.20;;;12.10;1.00;;;;;;5042717;28;20667;-64
2022/06/07 02:44:15;;;;;;;11.20;10.07;;;12.10;1.00;;;;;;5037605;28;20200;-64
2022/06/07 02:46:42;;;;;;;10.67;9.57;;;12.00;1.00;;;;;;5040741;28;20238;-63
2022/06/07 02:49:09;;;;;;;14.63;10.50;;;12.00;1.00;;;;;;5037821;28;20211;-64
2022/06/07 02:51:37;;;;;;;11.17;9.33;;;12.10;99.90;;;;;;5039846;28;20259;-64
2022/06/07 02:54:05;;;;;;;10.27;9.17;;;12.20;99.90;;;;;;5031770;28;20308;-64
2022/06/07 02:56:32;;;;;;;9.17;8.10;;;12.30;99.90;;;;;;5030077;28;20201;-63
2022/06/07 02:58:59;;;;;;;8.93;7.73;;;12.40;1.00;;;;;;5040346;28;20207;-63
2022/06/07 03:01:29;;;;;;;8.77;7.87;;;12.50;1.00;;;;;;5022918;28;20208;-64
2022/06/07 03:03:58;;;;;;;8.57;7.63;;;12.50;1.00;;;;;;5040913;28;20230;-63
2022/06/07 03:06:29;;;;;;;9.40;7.90;;;12.50;1.00;;;;;;5040212;28;20239;-63
2022/06/07 03:08:56;;;;;;;9.80;7.50;;;12.40;1.00;;;;;;5042676;28;20226;-63
2022/06/07 03:11:24;;;;;;;12.87;8.30;;;12.40;1.00;;;;;;5038390;28;20210;-63
2022/06/07 03:13:51;;;;;;;9.37;7.53;;;12.40;1.00;;;;;;5043362;28;20713;-62
2022/06/07 03:16:26;;;;;;;7.87;7.07;;;12.50;1.00;;;;;;5023975;28;20190;-64
2022/06/07 03:18:53;;;;;;;8.13;7.10;;;12.80;1.00;;;;;;5045884;28;20679;-63
2022/06/07 03:21:22;;;;;;;8.73;7.93;;;12.90;99.90;;;;;;5043358;28;20725;-63
2022/06/07 03:23:49;;;;;;;10.30;8.77;;;13.00;99.90;;;;;;5025566;28;20283;-63
2022/06/07 03:26:17;;;;;;;13.50;11.47;;;13.00;99.90;;;;;;5047399;28;20191;-63
2022/06/07 03:28:53;;;;;;;10.07;7.37;;;13.00;99.90;;;;;;5036917;28;20223;-63
2022/06/07 03:31:22;;;;;;;12.10;7.40;;;13.00;99.90;;;;;;5040388;28;20254;-63
2022/06/07 03:33:54;;;;;;;11.90;9.60;;;13.10;99.90;;;;;;5027312;28;20299;-64
2022/06/07 03:36:28;;;;;;;8.03;5.87;;;13.10;99.90;;;;;;5042379;28;20196;-64
2022/06/07 03:39:02;;;;;;;10.00;7.63;;;13.10;3.40;;;;;;5045239;28;20636;-63
2022/06/07 03:41:32;;;;;;;6.77;5.60;;;13.10;12.60;;;;;;5035216;28;20612;-64
2022/06/07 03:44:06;;;;;;;9.87;5.73;;;13.30;1.00;;;;;;5035829;28;20196;-64
2022/06/07 03:46:37;;;;;;;4.63;4.20;;;13.40;1.00;;;;;;5024097;28;20212;-63
2022/06/07 03:49:04;;;;;;;7.80;5.77;;;13.40;1.00;;;;;;5037972;28;20214;-63
2022/06/07 03:51:32;;;;;;;5.30;4.80;;;13.60;1.00;;;;;;5041208;28;20281;-62
2022/06/07 03:54:00;;;;;;;6.07;4.10;;;13.90;1.00;;;;;;5028583;28;20850;-63
2022/06/07 03:56:29;;;;;;;9.53;6.03;;;14.10;99.90;;;;;;5047005;28;20273;-62
2022/06/07 03:58:59;;;;;;;9.03;4.50;;;14.40;99.90;;;;;;5040330;28;20237;-63
2022/06/07 04:01:27;;;;;;;5.00;3.00;;;14.50;99.90;;;;;;5045426;28;20663;-64
2022/06/07 04:03:59;;;;;;;7.80;3.57;;;14.60;99.90;;;;;;5045382;28;20201;-64
2022/06/07 04:06:30;;;;;;;6.67;3.63;;;14.90;67.80;;;;;;5054210;28;20564;-62
2022/06/07 04:09:04;;;;;;;7.90;4.70;;;14.60;99.90;;;;;;5029617;28;20360;-64
2022/06/07 04:11:36;;;;;;;6.47;4.57;;;14.70;99.90;;;;;;5035243;28;20223;-64
2022/06/07 04:14:03;;;;;;;6.60;3.70;;;14.40;99.90;;;;;;5043201;28;20219;-64
2022/06/07 04:16:31;;;;;;;4.93;2.90;;;14.40;99.90;;;;;;5037778;28;20633;-64
2022/06/07 04:19:08;;;;;;;4.87;3.20;;;14.30;99.90;;;;;;5031690;28;20525;-64
2022/06/07 04:21:35;;;;;;;8.00;2.97;;;14.40;99.90;;;;;;5040037;28;20228;-64
2022/06/07 04:24:12;;;;;;;11.17;3.70;;;15.10;1.00;;;;;;5036303;28;20219;-63
2022/06/07 04:26:39;;;;;;;5.17;2.33;;;15.80;1.00;;;;;;5036597;28;20204;-64
2022/06/07 04:29:07;;;;;;;9.00;2.42;;;16.30;1.00;;;;;;5023338;28;20581;-64
2022/06/07 04:31:36;;;;;;;7.03;3.85;;;16.50;1.00;;;;;;5030550;28;20226;-64
2022/06/07 04:34:08;;;;;;;5.93;2.28;;;16.50;1.00;;;;;;5021052;28;20263;-63
2022/06/07 04:36:37;;;;;;;5.30;2.10;;;17.10;1.00;;;;;;5045520;28;20667;-64
2022/06/07 04:39:07;;;;;;;4.85;2.20;;;16.90;1.00;;;;;;5037490;28;20230;-64
2022/06/07 04:41:40;;;;;;;4.88;2.25;;;17.20;1.00;;;;;;5042838;28;20560;-64
2022/06/07 04:44:10;;;;;;;5.28;2.63;;;17.30;1.00;;;;;;5034619;28;20224;-64
2022/06/07 04:46:37;;;;;;;6.18;2.30;;;17.60;1.00;;;;;;5038335;28;20199;-64
2022/06/07 04:49:06;;;;;;;4.68;2.03;;;17.70;99.90;;;;;;5035908;28;20199;-64
2022/06/07 04:51:36;;;;;;;5.72;2.38;;;18.10;99.90;;;;;;5037789;28;20322;-65
2022/06/07 04:54:12;;;;;;;4.15;2.38;;;18.10;99.90;;;;;;5037586;28;23099;-63
2022/06/07 04:56:43;;;;;;;3.05;2.20;;;18.30;99.90;;;;;;5035478;28;20686;-64
2022/06/07 04:59:12;;;;;;;6.03;3.15;;;18.40;99.90;;;;;;5032758;28;20192;-64
2022/06/07 05:01:46;;;;;;;3.28;2.50;;;18.70;99.90;;;;;;5053736;28;20328;-64
2022/06/07 05:04:22;;;;;;;7.05;4.88;;;18.90;99.90;;;;;;5040865;28;20326;-64
2022/06/07 05:06:50;;;;;;;6.32;2.83;;;19.70;99.90;;;;;;5032615;28;20208;-65
2022/06/07 05:09:29;;;;;;;4.25;3.65;;;19.10;99.90;;;;;;5041002;28;20195;-65
2022/06/07 05:12:08;;;;;;;5.53;2.95;;;18.50;99.90;;;;;;5038027;28;20203;-64
2022/06/07 05:14:41;;;;;;;3.60;2.20;;;18.80;99.90;;;;;;5045316;28;20731;-64
2022/06/07 05:17:09;;;;;;;3.10;1.63;;;19.30;99.90;;;;;;5033859;28;20588;-64
2022/06/07 05:19:39;;;;;;;4.88;1.80;;;19.70;99.90;;;;;;5033018;28;20347;-66
2022/06/07 05:22:11;;;;;;;3.28;1.98;;;20.10;99.90;;;;;;5039449;28;20203;-65
2022/06/07 05:24:45;;;;;;;5.10;2.00;;;20.30;99.90;;;;;;5055834;28;20195;-64
2022/06/07 05:27:18;;;;;;;6.75;2.45;;;19.10;99.90;;;;;;5027373;28;20230;-64
2022/06/07 05:29:54;;;;;;;7.18;2.55;;;18.60;99.90;;;;;;5039163;28;20207;-65
2022/06/07 05:32:36;;;;;;;6.72;2.35;;;17.90;99.90;;;;;;5025998;28;20278;-64
2022/06/07 05:35:05;;;;;;;3.72;2.00;;;17.80;99.90;;;;;;5053115;28;20225;-63
2022/06/07 05:37:37;;;;;;;4.88;1.90;;;18.00;99.90;;;;;;5037027;28;20222;-65
2022/06/07 05:40:19;;;;;;;5.90;2.10;;;18.40;99.90;;;;;;5054204;28;20189;-65
2022/06/07 05:42:47;;;;;;;2.75;2.00;;;18.30;99.90;;;;;;5038448;28;20230;-64
2022/06/07 05:45:23;;;;;;;5.07;1.98;;;18.60;99.90;;;;;;5039233;28;20204;-65
2022/06/07 05:47:50;;;;;;;4.85;2.35;;;18.50;99.90;;;;;;5038582;28;21279;-64
2022/06/07 05:50:25;;;;;;;3.22;1.85;;;18.10;99.90;;;;;;5040033;28;20201;-64
2022/06/07 05:52:57;;;;;;;5.50;2.05;;;18.20;99.90;;;;;;5041917;28;20204;-63
2022/06/07 05:55:24;;;;;;;3.55;1.90;;;18.30;99.90;;;;;;5055971;28;20728;-63
2022/06/07 05:57:54;;;;;;;5.38;1.70;;;18.20;99.90;;;;;;5051690;28;20222;-63
2022/06/07 06:00:24;;;;;;;5.65;2.08;;;18.50;99.90;;;;;;5040115;28;20554;-63
2022/06/07 06:02:52;;;;;;;4.82;3.72;;;18.70;99.90;;;;;;5029681;28;20604;-63
2022/06/07 06:05:33;;;;;;;6.70;3.05;;;18.90;99.90;;;;;;5053809;28;20199;-63
2022/06/07 06:11:12;;;;;;;5.70;3.50;;;18.70;99.90;;;;;;5036888;28;20763;-62
2022/06/07 06:13:45;;;;;;;2.83;1.70;;;18.60;99.90;;;;;;5039752;28;20203;-62
2022/06/07 06:16:18;;;;;;;3.90;2.33;;;18.60;99.90;;;;;;5051123;28;20202;-62
2022/06/07 06:18:51;;;;;;;4.95;2.20;;;18.20;99.90;;;;;;5023390;28;20198;-61
2022/06/07 06:21:23;;;;;;;5.15;2.58;;;18.20;99.90;;;;;;5039065;28;20305;-61
2022/06/07 06:23:51;;;;;;;5.97;2.45;;;18.10;99.90;;;;;;5057263;28;20199;-61
2022/06/07 06:26:20;;;;;;;6.07;2.35;;;18.50;99.90;;;;;;5039891;28;20689;-63
2022/06/07 06:28:49;;;;;;;7.40;3.05;;;19.00;99.90;;;;;;5047321;28;20227;-63
2022/06/07 06:31:16;;;;;;;3.60;1.60;;;19.10;99.90;;;;;;5030122;28;21187;-63
2022/06/07 06:33:48;;;;;;;5.80;3.35;;;19.00;99.90;;;;;;5038197;28;20763;-63
2022/06/07 06:36:20;;;;;;;7.05;2.22;;;18.90;99.90;;;;;;5041723;28;20204;-63
2022/06/07 06:38:48;;;;;;;7.88;2.83;;;18.40;99.90;;;;;;5048495;28;20211;-64
2022/06/07 06:41:19;;;;;;;4.45;1.67;;;18.50;99.90;;;;;;5041832;28;20206;-64
2022/06/07 06:43:47;;;;;;;2.13;1.45;;;18.30;99.90;;;;;;5035078;28;20195;-64
2022/06/07 06:46:33;;;;;;;4.85;1.75;;;17.90;99.90;;;;;;5035638;28;20191;-65
2022/06/07 06:49:05;;;;;;;5.43;1.95;;;17.90;99.90;;;;;;5043158;28;20606;-65
2022/06/07 06:51:33;;;;;;;4.30;2.15;;;18.00;99.90;;;;;;5046614;28;20187;-66
2022/06/07 06:54:01;;;;;;;5.63;2.22;;;18.30;99.90;;;;;;5039013;28;20191;-65
2022/06/07 06:56:38;;;;;;;2.53;1.65;;;18.00;99.90;;;;;;5033068;28;20202;-65
2022/06/07 06:59:15;;;;;;;3.42;1.92;;;17.80;99.90;;;;;;5031076;28;20199;-65
2022/06/07 07:01:45;;;;;;;5.28;2.20;;;17.90;99.90;;;;;;5020633;28;20760;-65
2022/06/07 07:04:17;;;;;;;2.55;2.10;;;18.20;99.90;;;;;;5040650;28;20195;-66
2022/06/07 07:06:48;;;;;;;3.90;1.70;;;18.90;99.90;;;;;;5042581;28;21111;-63
2022/06/07 07:09:19;;;;;;;2.60;1.23;;;19.90;99.90;;;;;;5042760;28;20199;-63
2022/06/07 07:11:51;;;;;;;3.33;1.83;;;20.60;99.90;;;;;;5035922;28;20214;-64
2022/06/07 07:14:28;;;;;;;3.38;1.50;;;21.60;99.90;;;;;;5042592;28;20222;-64
2022/06/07 07:16:56;;;;;;;3.60;1.50;;;22.50;99.90;;;;;;5041788;28;20207;-64
2022/06/07 07:19:24;;;;;;;6.47;1.40;;;22.70;99.90;;;;;;5055099;28;20199;-65
2022/06/07 07:21:53;;;;;;;3.65;1.50;;;23.90;99.90;;;;;;5039636;28;20436;-64
2022/06/07 07:24:23;;;;;;;8.55;1.48;;;23.00;99.90;;;;;;5037491;28;20187;-64
2022/06/07 07:26:55;;;;;;;3.58;1.35;;;24.00;99.90;;;;;;5032712;28;20198;-64
2022/06/07 07:29:26;;;;;;;4.05;2.10;;;26.50;99.90;;;;;;5048099;28;20239;-64
2022/06/07 07:31:56;;;;;;;10.13;7.90;;;26.90;99.90;;;;;;5060256;28;20226;-63
2022/06/07 07:34:31;;;;;;;4.43;1.70;;;28.20;99.90;;;;;;5042328;28;20687;-65
2022/06/07 07:36:58;;;;;;;3.90;2.80;;;27.30;99.90;;;;;;5042872;28;20198;-63
2022/06/07 07:39:30;;;;;;;6.47;4.28;;;28.10;99.90;;;;;;5037909;28;20206;-64
2022/06/07 07:41:58;;;;;;;5.93;3.67;;;26.70;99.90;;;;;;5040528;28;20188;-63
2022/06/07 07:44:29;;;;;;;2.88;1.40;;;28.00;99.90;;;;;;5055893;28;20576;-64
2022/06/07 07:46:59;;;;;;;5.60;2.80;;;27.10;99.90;;;;;;5037997;28;20234;-64
2022/06/07 07:49:32;;;;;;;6.03;1.77;;;28.50;99.90;;;;;;5039791;28;20204;-63
2022/06/07 07:52:00;;;;;;;3.03;1.80;;;29.00;99.90;;;;;;5047653;28;20213;-63
2022/06/07 07:54:30;;;;;;;3.38;1.05;;;29.80;99.90;;;;;;5053931;28;20190;-63
2022/06/07 07:57:01;;;;;;;3.22;1.50;;;28.90;99.90;;;;;;5049022;28;20199;-63
2022/06/07 07:59:34;;;;;;;5.45;4.65;;;27.30;99.90;;;;;;5021429;28;20605;-62
2022/06/07 08:02:04;;;;;;;6.45;4.03;;;27.90;99.90;;;;;;5027815;28;20290;-64
2022/06/07 08:04:32;;;;;;;8.43;3.85;;;26.50;99.90;;;;;;5043719;28;20199;-62
2022/06/07 08:06:59;;;;;;;9.90;5.88;;;27.20;99.90;;;;;;5038475;28;20206;-62
2022/06/07 08:09:26;;;;;;;4.82;3.85;;;28.20;99.90;;;;;;5036336;28;20221;-65
2022/06/07 08:11:54;;;;;;;8.30;5.22;;;28.70;99.90;;;;;;5039625;28;20606;-64
2022/06/07 08:14:23;;;;;;;3.58;2.55;;;29.20;99.90;;;;;;5051096;28;20196;-63
2022/06/07 08:16:50;;;;;;;5.25;3.70;;;29.10;99.90;;;;;;5055147;28;20192;-63
2022/06/07 08:19:18;;;;;;;4.82;3.03;;;30.00;99.90;;;;;;5055901;28;20252;-62
2022/06/07 08:21:46;;;;;;;7.10;5.72;;;30.00;99.90;;;;;;5052852;28;20254;-62
2022/06/07 08:24:13;;;;;;;5.90;4.13;;;30.30;99.90;;;;;;5054647;28;20233;-64
2022/06/07 08:26:40;;;;;;;3.63;1.45;;;29.50;99.90;;;;;;5053601;28;20214;-64
2022/06/07 08:29:07;;;;;;;4.32;1.50;;;26.70;99.90;;;;;;5053939;28;20206;-63
2022/06/07 08:31:35;;;;;;;1.88;1.60;;;26.90;99.90;;;;;;5054985;28;21135;-64
2022/06/07 08:39:38;;;;;;;5.10;1.70;;;31.00;99.90;;;;;;5041942;28;20252;-63
2022/06/07 08:42:19;;;;;;;2.65;1.75;;;27.40;99.90;;;;;;5056560;28;20281;-64
2022/06/07 08:44:55;;;;;;;4.05;2.38;;;28.00;99.90;;;;;;5042396;28;20199;-64
2022/06/07 08:47:37;;;;;;;7.15;1.20;;;28.70;99.90;;;;;;5041544;28;20195;-64
2022/06/07 08:50:12;;;;;;;6.72;1.63;;;27.00;99.90;;;;;;5039241;28;21127;-64
2022/06/07 08:52:40;;;;;;;5.13;1.50;;;27.30;99.90;;;;;;5042219;28;20600;-64
2022/06/07 08:55:19;;;;;;;3.42;1.48;;;28.20;99.90;;;;;;5051981;28;20265;-64
2022/06/07 08:57:54;;;;;;;2.75;1.45;;;27.90;99.90;;;;;;5036661;28;20291;-64
2022/06/07 09:00:25;;;;;;;1.60;1.20;;;31.40;99.90;;;;;;5050400;28;20186;-64
2022/06/07 09:03:36;;;;;;;4.22;1.67;;;30.50;99.90;;;;;;5050961;28;21549;-64
2022/06/07 09:06:17;;;;;;;4.13;1.90;;;30.70;99.90;;;;;;5050796;28;20206;-65
2022/06/07 09:08:49;;;;;;;3.17;1.40;;;31.00;99.90;;;;;;5038836;28;20206;-64
2022/06/07 09:14:30;;;;;;;5.03;1.80;;;31.80;99.90;;;;;;5053803;28;20191;-64
2022/06/07 09:17:00;;;;;;;3.40;1.30;;;29.00;99.90;;;;;;5044357;28;20207;-64
2022/06/07 09:19:29;;;;;;;3.65;1.10;;;28.30;99.90;;;;;;5050175;28;20207;-64
2022/06/07 09:22:00;;;;;;;3.72;1.70;;;27.20;99.90;;;;;;5027816;28;20209;-64
2022/06/07 09:24:49;;;;;;;2.97;1.40;;;26.40;99.90;;;;;;5000180;28;20197;-64
2022/06/07 09:27:24;;;;;;;5.00;1.30;;;25.80;99.90;;;;;;5012348;28;20204;-64
2022/06/07 09:30:02;;;;;;;3.97;1.40;;;28.40;99.90;;;;;;5010137;28;20203;-63
2022/06/07 09:32:36;;;;;;;2.75;1.33;;;27.40;99.90;;;;;;5014837;28;20200;-63
2022/06/07 09:35:08;;;;;;;4.07;1.42;;;27.90;99.90;;;;;;5013526;28;20208;-63
2022/06/07 09:37:52;;;;;;;7.38;1.77;;;28.90;99.90;;;;;;5015765;28;20217;-63
2022/06/07 09:40:23;;;;;;;2.85;1.40;;;28.30;99.90;;;;;;5015025;28;20193;-65
2022/06/07 09:43:22;;;;;;;2.53;1.30;;;27.60;99.90;;;;;;5012792;28;20208;-63
2022/06/07 09:45:57;;;;;;;3.03;1.58;;;26.80;99.90;;;;;;4996579;28;20268;-63
2022/06/07 09:48:39;;;;;;;1.83;1.10;;;28.70;99.90;;;;;;5019277;28;20211;-64
2022/06/07 09:51:12;;;;;;;3.30;1.40;;;29.90;99.90;;;;;;5015695;28;20210;-64
2022/06/07 09:53:46;;;;;;;3.95;1.60;;;29.50;99.90;;;;;;5019322;28;20271;-64
2022/06/07 09:56:21;;;;;;;3.47;1.20;;;28.30;99.90;;;;;;5019713;28;20211;-63
2022/06/07 09:59:25;;;;;;;3.53;1.50;;;28.20;99.90;;;;;;5018692;28;20204;-63
2022/06/07 10:02:14;;;;;;;2.20;1.08;;;29.70;99.90;;;;;;5014547;28;20229;-63
2022/06/07 10:04:53;;;;;;;5.00;1.50;;;28.40;99.90;;;;;;5032483;28;20204;-63
2022/06/07 10:07:28;;;;;;;2.80;1.40;;;26.80;99.90;;;;;;5013924;28;20184;-63
2022/06/07 10:09:58;;;;;;;2.88;1.23;;;26.20;99.90;;;;;;5013878;28;20907;-63
2022/06/07 10:12:31;;;;;;;2.13;1.23;;;26.80;99.90;;;;;;5019907;28;20205;-63
2022/06/07 10:15:26;;;;;;;4.28;1.40;;;25.50;99.90;;;;;;5019710;28;20196;-64
2022/06/07 10:18:12;;;;;;;5.20;1.33;;;26.80;99.90;;;;;;5017198;28;20883;-64
2022/06/07 10:21:05;;;;;;;4.13;1.70;;;28.80;99.90;;;;;;5037165;28;20299;-64
2022/06/07 10:23:59;;;;;;;1.70;1.40;;;26.70;99.90;;;;;;5044175;28;20222;-64
2022/06/07 10:26:35;;;;;;;5.70;1.52;;;25.90;99.90;;;;;;5063375;28;20237;-64
2022/06/07 10:29:26;;;;;;;2.35;1.30;;;25.50;99.90;;;;;;5062205;28;20241;-64
2022/06/07 10:31:59;;;;;;;3.50;1.20;;;24.80;99.90;;;;;;5058205;28;20557;-63
2022/06/07 10:34:49;;;;;;;3.40;1.50;;;26.30;99.90;;;;;;5055246;28;20194;-63
2022/06/07 10:37:48;;;;;;;5.85;1.40;;;25.20;99.90;;;;;;5054470;28;20227;-64
2022/06/07 10:40:24;;;;;;;4.70;1.50;;;25.10;99.90;;;;;;5028257;28;20220;-63
2022/06/07 10:42:56;;;;;;;4.05;1.60;;;25.00;99.90;;;;;;5054262;28;20206;-63
2022/06/07 10:45:33;;;;;;;2.83;1.33;;;24.70;99.90;;;;;;5040350;28;20230;-63
2022/06/07 10:48:23;;;;;;;4.50;1.55;;;23.40;99.90;;;;;;5041163;28;20202;-64
2022/06/07 10:50:59;;;;;;;2.92;1.55;;;23.60;99.90;;;;;;5041283;28;20188;-63
2022/06/07 10:53:28;;;;;;;7.43;1.38;;;23.90;99.90;;;;;;5055330;28;20542;-64
2022/06/07 10:56:17;;;;;;;4.75;1.80;;;25.40;99.90;;;;;;5039111;28;20770;-64
2022/06/07 10:58:47;;;;;;;6.53;1.67;;;25.00;99.90;;;;;;5061768;28;20195;-63
2022/06/07 11:01:27;;;;;;;3.90;1.67;;;24.70;99.90;;;;;;5056379;28;20192;-63
2022/06/07 11:09:19;;;;;;;3.67;1.65;;;24.30;99.90;;;;;;5056287;28;20735;-63
2022/06/07 11:10:09;;;;;;;6.03;1.73;;;23.90;99.90;;;;;;5057606;28;20206;-63
2022/06/07 11:13:17;;;;;;;4.95;1.80;;;24.40;99.90;;;;;;5059365;28;20201;-63
2022/06/07 11:16:15;;;;;;;3.75;1.50;;;24.10;99.90;;;;;;5052921;28;20215;-64
2022/06/07 11:18:43;;;;;;;2.28;1.48;;;24.00;99.90;;;;;;5054944;28;20227;-63
2022/06/07 11:21:25;;;;;;;2.30;1.52;;;23.60;99.90;;;;;;5035434;28;20299;-66
2022/06/07 11:24:18;;;;;;;3.92;1.40;;;23.30;99.90;;;;;;5027993;28;20187;-64
2022/06/07 11:26:52;;;;;;;3.40;1.50;;;23.90;99.90;;;;;;5039702;28;20199;-64
2022/06/07 11:29:23;;;;;;;7.22;1.80;;;25.40;99.90;;;;;;5030649;28;20661;-64
2022/06/07 11:31:51;;;;;;;2.40;1.45;;;26.70;99.90;;;;;;5041907;28;21010;-64
2022/06/07 11:34:23;;;;;;;5.40;1.60;;;26.60;99.90;;;;;;5040275;28;20207;-64
2022/06/07 11:36:55;;;;;;;3.42;1.48;;;25.20;99.90;;;;;;5041030;28;20677;-63
2022/06/07 11:39:22;;;;;;;4.47;1.50;;;25.00;99.90;;;;;;5058345;28;20199;-64
2022/06/07 11:42:06;;;;;;;5.18;1.98;;;25.00;99.90;;;;;;5040645;28;20679;-63
2022/06/07 11:44:36;;;;;;;3.65;1.52;;;25.50;99.90;;;;;;5055026;28;20227;-63
2022/06/07 11:47:23;;;;;;;3.90;1.73;;;26.10;99.90;;;;;;5045349;28;20199;-63
2022/06/07 11:49:50;;;;;;;2.65;1.40;;;26.40;99.90;;;;;;5057762;28;20198;-64
2022/06/07 11:52:34;;;;;;;2.60;1.52;;;26.60;99.90;;;;;;5060042;28;20223;-63
2022/06/07 11:55:12;;;;;;;4.20;1.90;;;25.50;99.90;;;;;;5058598;28;20237;-65
2022/06/07 11:57:56;;;;;;;2.53;1.30;;;26.10;99.90;;;;;;5058739;28;20191;-64
2022/06/07 12:00:37;;;;;;;5.15;1.50;;;27.60;99.90;;;;;;5059064;28;20184;-64
2022/06/07 12:03:08;;;;;;;3.97;1.20;;;27.70;99.90;;;;;;5055888;28;20200;-63
2022/06/07 12:05:55;;;;;;;3.70;1.50;;;27.30;99.90;;;;;;5047970;28;20235;-62
2022/06/07 12:08:46;;;;;;;1.67;1.35;;;26.60;99.90;;;;;;5060683;28;20218;-63
2022/06/07 12:11:23;;;;;;;3.33;1.40;;;25.50;99.90;;;;;;5026837;28;20565;-62
2022/06/07 12:13:56;;;;;;;4.50;1.52;;;25.30;99.90;;;;;;5058885;28;20213;-61
2022/06/07 12:16:36;;;;;;;3.10;1.48;;;25.50;99.90;;;;;;5049260;28;20211;-62
2022/06/07 12:19:15;;;;;;;3.70;1.50;;;25.00;99.90;;;;;;5058875;28;20559;-64
2022/06/07 12:21:51;;;;;;;3.20;1.60;;;25.20;99.90;;;;;;5060334;28;20231;-65
2022/06/07 12:24:19;;;;;;;3.38;1.52;;;25.50;99.90;;;;;;5041944;28;20190;-64
2022/06/07 12:26:47;;;;;;;3.15;1.40;;;25.40;99.90;;;;;;5047080;28;20229;-64
2022/06/07 12:29:20;;;;;;;2.25;1.25;;;25.40;99.90;;;;;;5059181;28;20718;-64
2022/06/07 12:32:06;;;;;;;3.78;1.40;;;25.30;99.90;;;;;;5058588;28;20736;-64
2022/06/07 12:34:36;;;;;;;4.55;1.42;;;25.50;99.90;;;;;;5055328;28;20770;-64
2022/06/07 12:37:25;;;;;;;2.63;1.60;;;25.60;99.90;;;;;;5048646;28;20207;-63
2022/06/07 12:39:57;;;;;;;1.98;1.20;;;25.10;99.90;;;;;;5042642;28;20215;-64
2022/06/07 12:42:27;;;;;;;1.35;1.23;;;25.10;99.90;;;;;;5056199;28;20192;-64
2022/06/07 12:45:02;;;;;;;3.63;1.70;;;24.50;99.90;;;;;;5057092;28;20187;-63
2022/06/07 12:47:36;;;;;;;6.00;1.60;;;24.60;99.90;;;;;;5058284;28;20194;-63
2022/06/07 12:50:18;;;;;;;1.85;1.27;;;24.90;99.90;;;;;;5056157;28;20237;-62
2022/06/07 12:52:53;;;;;;;4.68;1.77;;;25.10;99.90;;;;;;5057804;28;20669;-63
2022/06/07 12:55:28;;;;;;;4.85;1.75;;;24.80;99.90;;;;;;5029845;28;20207;-63
2022/06/07 12:57:59;;;;;;;2.95;1.80;;;24.50;99.90;;;;;;5042725;28;20190;-63
2022/06/07 13:00:34;;;;;;;4.50;1.77;;;24.60;99.90;;;;;;5036851;28;20202;-63
2022/06/07 13:03:13;;;;;;;3.75;1.70;;;24.60;99.90;;;;;;5036391;28;20290;-62
2022/06/07 13:05:41;;;;;;;4.50;1.40;;;24.10;99.90;;;;;;5058465;28;20203;-64
2022/06/07 13:08:23;;;;;;;3.58;1.50;;;23.50;99.90;;;;;;5040138;28;20200;-62
2022/06/07 13:10:51;;;;;;;3.85;1.50;;;23.70;99.90;;;;;;5055221;28;20199;-62
2022/06/07 13:13:25;;;;;;;2.42;1.75;;;23.30;99.90;;;;;;5045139;28;20259;-62
2022/06/07 13:16:01;;;;;;;3.38;1.30;;;23.30;99.90;;;;;;5038872;28;20217;-62
2022/06/07 13:18:33;;;;;;;3.40;1.60;;;23.20;99.90;;;;;;5059271;28;20287;-63
2022/06/07 13:21:30;;;;;;;2.00;1.45;;;23.50;99.90;;;;;;5057228;28;20280;-62
2022/06/07 13:23:58;;;;;;;2.65;1.52;;;23.20;99.90;;;;;;5049451;28;20198;-63
2022/06/07 13:26:33;;;;;;;2.58;1.60;;;23.60;99.90;;;;;;5052060;28;20260;-63
2022/06/07 13:29:12;;;;;;;4.45;1.65;;;23.80;99.90;;;;;;5053288;28;20614;-63
2022/06/07 13:31:54;;;;;;;4.50;1.40;;;23.80;99.90;;;;;;5036459;28;20231;-63
2022/06/07 13:34:26;;;;;;;2.80;1.33;;;23.90;99.90;;;;;;5053474;28;20195;-63
2022/06/07 13:37:05;;;;;;;2.35;1.35;;;23.30;99.90;;;;;;5028915;28;20214;-63
2022/06/07 13:39:34;;;;;;;3.45;1.25;;;23.70;99.90;;;;;;5032661;28;20898;-62
2022/06/07 13:42:19;;;;;;;2.65;1.30;;;23.20;99.90;;;;;;5051917;28;20206;-64
2022/06/07 13:44:54;;;;;;;3.67;1.20;;;23.80;99.90;;;;;;5025050;28;20195;-62